createdAt,value
2023-02-13T00:01:01.413Z,4.67
2023-02-13T00:03:34.450Z,5.53
2023-02-13T00:06:07.488Z,5.07
2023-02-13T00:08:40.234Z,4.93
2023-02-13T00:11:13.039Z,4.97
2023-02-13T00:13:45.755Z,4.97
2023-02-13T00:16:18.496Z,4.93
2023-02-13T00:18:51.170Z,5.10
2023-02-13T00:21:24.000Z,4.60
2023-02-13T00:23:56.707Z,4.87
2023-02-13T00:26:29.471Z,4.27
2023-02-13T00:29:02.211Z,3.40
2023-02-13T00:31:35.020Z,3.40
2023-02-13T00:34:07.924Z,3.87
2023-02-13T00:36:41.494Z,3.57
2023-02-13T00:39:14.467Z,3.57
2023-02-13T00:41:46.961Z,3.57
2023-02-13T00:44:19.804Z,3.57
2023-02-13T00:46:52.499Z,4.20
2023-02-13T00:49:25.439Z,3.73
2023-02-13T00:51:58.106Z,3.67
2023-02-13T00:54:30.801Z,3.63
2023-02-13T00:57:04.043Z,4.00
2023-02-13T00:59:36.703Z,4.20
2023-02-13T01:02:09.545Z,3.87
2023-02-13T01:04:42.223Z,4.40
2023-02-13T01:07:16.654Z,4.47
2023-02-13T01:09:50.068Z,4.10
2023-02-13T01:12:22.871Z,4.37
2023-02-13T01:14:56.012Z,4.30
2023-02-13T01:17:28.755Z,5.13
2023-02-13T01:20:02.518Z,5.17
2023-02-13T01:22:35.415Z,5.13
2023-02-13T01:25:08.347Z,5.30
2023-02-13T01:27:41.131Z,5.23
2023-02-13T01:30:15.532Z,4.50
2023-02-13T01:32:48.273Z,4.43
2023-02-13T01:35:20.981Z,5.23
2023-02-13T01:37:53.753Z,4.77
2023-02-13T01:40:29.875Z,5.35
2023-02-13T01:43:02.649Z,5.33
2023-02-13T01:45:35.369Z,5.13
2023-02-13T01:48:21.008Z,5.37
2023-02-13T01:51:02.829Z,5.23
2023-02-13T01:53:45.346Z,4.57
2023-02-13T01:56:29.533Z,4.47
2023-02-13T01:59:09.534Z,5.17
2023-02-13T02:01:43.511Z,7.33
2023-02-13T02:04:26.768Z,5.17
2023-02-13T02:07:06.450Z,5.43
2023-02-13T02:09:42.912Z,5.30
2023-02-13T02:12:40.742Z,5.70
2023-02-13T02:15:16.248Z,7.20
2023-02-13T02:17:48.953Z,6.17
2023-02-13T02:20:59.698Z,7.33
2023-02-13T02:23:58.360Z,7.33
2023-02-13T02:27:02.352Z,6.73
2023-02-13T02:29:50.112Z,6.70
2023-02-13T02:32:28.782Z,7.20
2023-02-13T02:35:20.108Z,6.50
2023-02-13T02:38:12.239Z,5.93
2023-02-13T02:40:55.477Z,6.43
2023-02-13T02:43:34.596Z,6.80
2023-02-13T02:46:24.759Z,7.00
2023-02-13T02:49:30.478Z,5.97
2023-02-13T02:52:14.993Z,6.67
2023-02-13T02:55:08.018Z,7.87
2023-02-13T02:58:30.636Z,7.10
2023-02-13T03:01:28.348Z,6.37
2023-02-13T03:04:20.599Z,6.70
2023-02-13T03:06:58.186Z,6.53
2023-02-13T03:09:58.060Z,6.87
2023-02-13T03:12:57.461Z,6.20
2023-02-13T03:15:30.450Z,6.30
2023-02-13T03:18:21.715Z,5.90
2023-02-13T03:21:32.074Z,5.90
2023-02-13T03:24:16.042Z,5.83
2023-02-13T03:27:00.272Z,4.77
2023-02-13T03:29:54.505Z,5.27
2023-02-13T03:32:36.086Z,4.93
2023-02-13T03:36:03.977Z,4.47
2023-02-13T03:38:52.562Z,4.47
2023-02-13T03:41:56.358Z,5.37
2023-02-13T03:44:44.934Z,5.30
2023-02-13T03:47:17.662Z,5.03
2023-02-13T03:50:07.867Z,6.10
2023-02-13T03:53:00.818Z,5.50
2023-02-13T03:55:56.886Z,5.63
2023-02-13T03:58:59.802Z,8.13
2023-02-13T04:01:34.923Z,7.87
2023-02-13T04:04:39.615Z,5.23
2023-02-13T04:07:29.387Z,4.93
2023-02-13T04:10:10.037Z,6.10
2023-02-13T04:13:20.689Z,5.37
2023-02-13T04:16:07.104Z,5.20
2023-02-13T04:18:40.231Z,7.38
2023-02-13T04:21:13.608Z,5.33
2023-02-13T04:23:46.240Z,5.60
2023-02-13T04:26:21.708Z,6.13
2023-02-13T04:28:56.493Z,5.30
2023-02-13T04:31:29.349Z,5.27
2023-02-13T04:34:02.481Z,5.07
2023-02-13T04:36:35.566Z,5.80
2023-02-13T04:39:08.214Z,6.40
2023-02-13T04:41:41.091Z,5.97
2023-02-13T04:44:13.753Z,6.30
2023-02-13T04:46:46.519Z,7.83
2023-02-13T04:49:19.148Z,6.10
2023-02-13T04:51:51.974Z,5.37
2023-02-13T04:54:24.706Z,6.23
2023-02-13T04:56:57.456Z,5.50
2023-02-13T04:59:30.112Z,5.73
2023-02-13T05:02:04.895Z,6.30
2023-02-13T05:04:37.630Z,6.27
2023-02-13T05:07:10.317Z,5.73
2023-02-13T05:09:42.961Z,5.97
2023-02-13T05:12:16.119Z,5.30
2023-02-13T05:14:48.865Z,5.30
2023-02-13T05:17:21.646Z,6.33
2023-02-13T05:19:57.054Z,6.50
2023-02-13T05:22:48.320Z,6.10
2023-02-13T05:25:21.111Z,5.30
2023-02-13T05:27:53.789Z,5.17
2023-02-13T05:30:27.047Z,6.30
2023-02-13T05:32:59.767Z,6.63
2023-02-13T05:35:32.420Z,6.00
2023-02-13T05:38:05.162Z,5.77
2023-02-13T05:40:37.803Z,6.47
2023-02-13T05:43:10.624Z,6.17
2023-02-13T05:45:43.279Z,6.57
2023-02-13T05:48:20.638Z,6.73
2023-02-13T05:50:56.365Z,6.13
2023-02-13T05:53:29.890Z,6.90
2023-02-13T05:56:05.188Z,6.07
2023-02-13T05:58:38.000Z,6.03
2023-02-13T06:01:11.013Z,6.23
2023-02-13T06:03:43.855Z,5.73
2023-02-13T06:06:17.299Z,6.63
2023-02-13T06:08:50.079Z,5.77
2023-02-13T06:11:22.811Z,5.50
2023-02-13T06:13:55.524Z,5.80
2023-02-13T06:16:30.326Z,5.67
2023-02-13T06:19:03.108Z,7.50
2023-02-13T06:21:37.878Z,5.87
2023-02-13T06:24:10.669Z,6.20
2023-02-13T06:26:43.390Z,5.17
2023-02-13T06:29:16.170Z,6.40
2023-02-13T06:31:48.886Z,5.70
2023-02-13T06:34:21.698Z,5.87
2023-02-13T06:36:54.494Z,6.10
2023-02-13T06:39:27.152Z,5.90
2023-02-13T06:41:59.827Z,5.07
2023-02-13T06:44:35.220Z,5.90
2023-02-13T06:47:07.916Z,5.00
2023-02-13T06:49:40.626Z,5.63
2023-02-13T06:52:13.410Z,5.93
2023-02-13T06:54:48.008Z,5.20
2023-02-13T06:57:20.881Z,5.27
2023-02-13T06:59:53.636Z,5.70
2023-02-13T07:02:26.419Z,5.93
2023-02-13T07:04:59.346Z,6.17
2023-02-13T07:07:36.312Z,5.40
2023-02-13T07:10:11.858Z,5.07
2023-02-13T07:12:45.788Z,5.67
2023-02-13T07:15:21.946Z,6.07
2023-02-13T07:17:58.846Z,5.00
2023-02-13T07:20:31.687Z,5.10
2023-02-13T07:23:05.773Z,4.70
2023-02-13T07:25:38.443Z,4.30
2023-02-13T07:28:11.183Z,4.93
2023-02-13T07:30:43.968Z,4.50
2023-02-13T07:33:16.802Z,5.03
2023-02-13T07:35:50.873Z,5.20
2023-02-13T07:38:23.583Z,4.33
2023-02-13T07:41:00.685Z,4.90
2023-02-13T07:43:33.421Z,4.90
2023-02-13T07:46:06.516Z,4.40
2023-02-13T07:48:39.259Z,4.27
2023-02-13T07:51:11.956Z,4.90
2023-02-13T07:53:44.666Z,5.50
2023-02-13T07:56:17.394Z,4.57
2023-02-13T07:58:50.166Z,4.07
2023-02-13T08:01:22.956Z,5.60
2023-02-13T08:03:55.789Z,5.93
2023-02-13T08:06:28.554Z,5.93
2023-02-13T08:09:19.805Z,6.23
2023-02-13T08:11:54.053Z,5.97
2023-02-13T08:14:27.216Z,5.90
2023-02-13T08:17:01.844Z,6.60
2023-02-13T08:19:34.632Z,6.77
2023-02-13T08:22:07.331Z,6.87
2023-02-13T08:24:40.157Z,6.60
2023-02-13T08:27:14.307Z,6.27
2023-02-13T08:29:49.388Z,6.27
2023-02-13T08:32:23.056Z,6.50
2023-02-13T08:34:55.739Z,5.93
2023-02-13T08:37:28.472Z,6.80
2023-02-13T08:40:01.174Z,6.60
2023-02-13T08:42:33.867Z,7.00
2023-02-13T08:45:06.809Z,6.37
2023-02-13T08:47:39.917Z,6.97
2023-02-13T08:50:12.699Z,7.23
2023-02-13T08:52:45.472Z,6.90
2023-02-13T08:55:18.734Z,7.90
2023-02-13T08:57:51.374Z,6.77
2023-02-13T09:00:24.095Z,8.03
2023-02-13T09:03:04.298Z,7.23
2023-02-13T09:05:37.213Z,7.70
2023-02-13T09:08:11.702Z,9.32
2023-02-13T09:10:44.448Z,6.67
2023-02-13T09:13:17.106Z,6.10
2023-02-13T09:15:49.791Z,6.73
2023-02-13T09:18:22.448Z,6.47
2023-02-13T09:21:00.388Z,6.30
2023-02-13T09:23:35.140Z,6.43
2023-02-13T09:26:10.966Z,6.87
2023-02-13T09:28:44.411Z,6.00
2023-02-13T09:31:20.289Z,6.73
2023-02-13T09:33:53.146Z,6.73
2023-02-13T09:36:26.042Z,7.30
2023-02-13T09:38:58.950Z,7.00
2023-02-13T09:41:39.708Z,7.37
2023-02-13T09:44:33.907Z,7.83
2023-02-13T09:47:36.235Z,6.90
2023-02-13T09:50:18.962Z,6.47
2023-02-13T09:52:54.606Z,6.73
2023-02-13T09:55:40.486Z,6.97
2023-02-13T09:58:35.770Z,7.47
2023-02-13T10:01:30.528Z,6.57
2023-02-13T10:04:13.341Z,6.90
2023-02-13T10:06:50.368Z,7.07
2023-02-13T10:09:52.620Z,5.83
2023-02-13T10:12:33.452Z,6.50
2023-02-13T10:15:42.584Z,6.43
2023-02-13T10:18:19.299Z,6.30
2023-02-13T10:20:55.332Z,5.13
2023-02-13T10:23:50.991Z,6.80
2023-02-13T10:26:42.508Z,6.43
2023-02-13T10:29:39.446Z,7.03
2023-02-13T10:32:17.006Z,5.73
2023-02-13T10:35:03.759Z,6.87
2023-02-13T10:37:37.209Z,6.40
2023-02-13T10:40:11.894Z,5.93
2023-02-13T10:42:48.410Z,5.73
2023-02-13T10:45:49.383Z,5.80
2023-02-13T10:48:39.315Z,6.33
2023-02-13T10:51:20.691Z,6.17
2023-02-13T10:54:03.892Z,6.37
2023-02-13T10:57:02.752Z,6.57
2023-02-13T10:59:45.305Z,5.73
2023-02-13T11:02:25.478Z,5.93
2023-02-13T11:05:07.436Z,6.67
2023-02-13T11:07:42.281Z,5.70
2023-02-13T11:10:24.369Z,6.73
2023-02-13T11:12:57.188Z,6.20
2023-02-13T11:15:31.723Z,5.63
2023-02-13T11:18:20.809Z,5.63
2023-02-13T11:21:08.923Z,6.33
2023-02-13T11:23:49.719Z,5.57
2023-02-13T11:26:29.043Z,7.35
2023-02-13T11:29:06.302Z,6.57
2023-02-13T11:31:39.490Z,5.93
2023-02-13T11:34:32.698Z,6.00
2023-02-13T11:37:24.015Z,5.47
2023-02-13T11:39:58.866Z,5.90
2023-02-13T11:42:34.548Z,5.20
2023-02-13T11:45:21.668Z,6.03
2023-02-13T11:47:55.857Z,6.47
2023-02-13T11:50:34.906Z,5.47
2023-02-13T11:53:21.005Z,6.13
2023-02-13T11:56:08.267Z,5.87
2023-02-13T11:58:42.139Z,5.43
2023-02-13T12:01:20.865Z,5.97
2023-02-13T12:04:26.063Z,5.93
2023-02-13T12:07:12.469Z,5.57
2023-02-13T12:09:48.648Z,5.43
2023-02-13T12:12:38.119Z,6.50
2023-02-13T12:15:26.587Z,5.63
2023-02-13T12:18:08.692Z,5.70
2023-02-13T12:21:02.006Z,5.70
2023-02-13T12:23:37.408Z,5.77
2023-02-13T12:26:31.358Z,5.33
2023-02-13T12:29:07.765Z,5.60
2023-02-13T12:32:06.788Z,5.60
2023-02-13T12:34:45.780Z,5.37
2023-02-13T12:37:25.822Z,5.00
2023-02-13T12:40:24.075Z,5.13
2023-02-13T12:42:56.940Z,5.50
2023-02-13T12:45:30.019Z,5.50
2023-02-13T12:48:21.719Z,5.60
2023-02-13T12:50:54.650Z,4.82
2023-02-13T12:53:33.832Z,4.88
2023-02-13T12:56:09.992Z,4.80
2023-02-13T12:58:42.908Z,4.75
2023-02-13T13:01:34.874Z,4.97
2023-02-13T13:04:14.204Z,5.20
2023-02-13T13:06:57.093Z,5.22
2023-02-13T13:09:56.172Z,5.25
2023-02-13T13:12:37.638Z,4.90
2023-02-13T13:15:29.300Z,5.28
2023-02-13T13:18:19.573Z,5.45
2023-02-13T13:21:11.592Z,5.38
2023-02-13T13:23:47.712Z,5.00
2023-02-13T13:26:24.964Z,5.05
2023-02-13T13:28:58.890Z,4.82
2023-02-13T13:31:32.500Z,5.72
2023-02-13T13:34:07.215Z,5.57
2023-02-13T13:36:48.916Z,4.77
2023-02-13T13:39:40.913Z,5.03
2023-02-13T13:42:27.098Z,5.93
2023-02-13T13:45:06.761Z,4.67
2023-02-13T13:47:54.979Z,4.80
2023-02-13T13:50:29.392Z,5.30
2023-02-13T13:53:11.739Z,4.80
2023-02-13T13:55:50.584Z,4.77
2023-02-13T13:58:35.812Z,4.53
2023-02-13T14:01:18.275Z,4.90
2023-02-13T14:03:58.599Z,5.23
2023-02-13T14:06:31.477Z,4.90
2023-02-13T14:09:06.170Z,5.17
2023-02-13T14:11:46.761Z,5.03
2023-02-13T14:14:29.180Z,4.93
2023-02-13T14:17:02.618Z,4.63
2023-02-13T14:19:39.501Z,6.20
2023-02-13T14:22:31.298Z,5.73
2023-02-13T14:25:05.838Z,4.97
2023-02-13T14:27:39.899Z,4.73
2023-02-13T14:30:27.704Z,4.83
2023-02-13T14:33:02.036Z,5.30
2023-02-13T14:35:37.122Z,5.00
2023-02-13T14:38:22.352Z,4.77
2023-02-13T14:40:55.340Z,5.00
2023-02-13T14:43:33.390Z,4.70
2023-02-13T14:46:15.464Z,4.20
2023-02-13T14:48:54.100Z,4.60
2023-02-13T14:51:34.893Z,4.83
2023-02-13T14:54:16.181Z,4.53
2023-02-13T14:56:50.509Z,4.50
2023-02-13T14:59:25.415Z,4.63
2023-02-13T15:02:06.496Z,5.33
2023-02-13T15:04:44.903Z,4.37
2023-02-13T15:07:27.634Z,4.67
2023-02-13T15:10:02.475Z,4.37
2023-02-13T15:12:36.734Z,5.00
2023-02-13T15:15:29.198Z,4.83
2023-02-13T15:18:03.874Z,4.87
2023-02-13T15:20:38.608Z,4.90
2023-02-13T15:23:26.462Z,4.63
2023-02-13T15:26:03.536Z,4.23
2023-02-13T15:28:36.636Z,4.67
2023-02-13T15:31:23.592Z,5.07
2023-02-13T15:33:58.536Z,4.90
2023-02-13T15:36:41.222Z,4.10
2023-02-13T15:39:18.560Z,3.90
2023-02-13T15:41:52.857Z,4.13
2023-02-13T15:44:27.916Z,3.93
2023-02-13T15:47:07.442Z,4.07
2023-02-13T15:49:43.195Z,3.67
2023-02-13T15:52:19.462Z,4.33
2023-02-13T15:54:53.715Z,3.83
2023-02-13T15:57:27.420Z,3.50
2023-02-13T16:00:01.454Z,3.30
2023-02-13T16:02:47.933Z,3.53
2023-02-13T16:05:37.483Z,3.70
2023-02-13T16:08:32.497Z,3.50
2023-02-13T16:11:11.757Z,3.10
2023-02-13T16:14:02.469Z,3.53
2023-02-13T16:16:46.021Z,3.60
2023-02-13T16:19:25.070Z,3.30
2023-02-13T16:21:58.723Z,3.27
2023-02-13T16:24:32.219Z,3.57
2023-02-13T16:27:05.181Z,3.77
2023-02-13T16:29:38.190Z,3.63
2023-02-13T16:32:17.696Z,3.43
2023-02-13T16:34:51.406Z,4.00
2023-02-13T16:37:26.960Z,3.70
2023-02-13T16:40:19.928Z,4.07
2023-02-13T16:42:52.862Z,5.30
2023-02-13T16:45:25.977Z,13.67
2023-02-13T16:48:03.227Z,5.90
2023-02-13T16:50:36.130Z,4.67
2023-02-13T16:53:09.187Z,4.63
2023-02-13T16:55:42.115Z,4.70
2023-02-13T16:58:16.250Z,4.50
2023-02-13T17:00:52.467Z,4.97
2023-02-13T17:03:25.534Z,5.17
2023-02-13T17:06:02.217Z,5.37
2023-02-13T17:08:35.082Z,6.20
2023-02-13T17:11:09.097Z,4.93
2023-02-13T17:13:42.197Z,5.03
2023-02-13T17:16:15.254Z,4.40
2023-02-13T17:18:48.442Z,3.73
2023-02-13T17:21:21.489Z,12.17
2023-02-13T17:24:02.545Z,12.60
2023-02-13T17:26:35.758Z,6.43
2023-02-13T17:29:08.875Z,6.10
2023-02-13T17:31:41.933Z,5.87
2023-02-13T17:34:15.089Z,4.80
2023-02-13T17:36:48.037Z,4.80
2023-02-13T17:39:21.045Z,4.90
2023-02-13T17:41:53.977Z,4.70
2023-02-13T17:44:26.918Z,5.60
2023-02-13T17:46:59.930Z,5.23
2023-02-13T17:49:32.920Z,4.97
2023-02-13T17:52:05.888Z,4.80
2023-02-13T17:54:38.840Z,5.60
2023-02-13T17:57:12.977Z,6.17
2023-02-13T17:59:46.249Z,4.97
2023-02-13T18:02:20.797Z,4.47
2023-02-13T18:04:53.907Z,4.33
2023-02-13T18:07:26.941Z,4.40
2023-02-13T18:09:59.890Z,4.17
2023-02-13T18:12:32.875Z,4.43
2023-02-13T18:15:06.210Z,4.43
2023-02-13T18:17:39.320Z,4.63
2023-02-13T18:20:14.964Z,3.60
2023-02-13T18:22:50.459Z,3.80
2023-02-13T18:25:23.656Z,3.43
2023-02-13T18:27:56.661Z,4.23
2023-02-13T18:30:29.664Z,4.10
2023-02-13T18:33:16.259Z,4.63
2023-02-13T18:35:52.247Z,5.13
2023-02-13T18:38:28.286Z,5.37
2023-02-13T18:41:03.612Z,10.37
2023-02-13T18:43:38.647Z,7.47
2023-02-13T18:46:13.156Z,6.90
2023-02-13T18:48:47.813Z,5.63
2023-02-13T18:51:23.113Z,5.50
2023-02-13T18:53:57.460Z,4.47
2023-02-13T18:56:30.492Z,4.53
2023-02-13T18:59:04.904Z,4.80
2023-02-13T19:01:41.370Z,5.90
2023-02-13T19:04:15.636Z,5.30
2023-02-13T19:06:49.702Z,4.80
2023-02-13T19:09:23.707Z,5.23
2023-02-13T19:11:58.498Z,3.67
2023-02-13T19:14:33.438Z,3.80
2023-02-13T19:17:09.289Z,3.57
2023-02-13T19:19:49.776Z,3.88
2023-02-13T19:22:25.528Z,3.27
2023-02-13T19:25:05.133Z,3.73
2023-02-13T19:27:39.413Z,3.07
2023-02-13T19:30:15.406Z,3.90
2023-02-13T19:32:50.916Z,2.70
2023-02-13T19:35:30.884Z,2.97
2023-02-13T19:38:04.678Z,3.03
2023-02-13T19:40:38.085Z,3.27
2023-02-13T19:43:17.308Z,3.00
2023-02-13T19:45:55.331Z,3.50
2023-02-13T19:48:32.562Z,2.53
2023-02-13T19:51:09.243Z,2.57
2023-02-13T19:53:45.079Z,2.77
2023-02-13T19:56:19.207Z,2.47
2023-02-13T19:58:54.154Z,2.77
2023-02-13T20:01:31.124Z,2.70
2023-02-13T20:04:04.777Z,2.90
2023-02-13T20:06:43.384Z,3.13
2023-02-13T20:09:16.572Z,2.83
2023-02-13T20:11:50.484Z,3.00
2023-02-13T20:14:23.472Z,3.07
2023-02-13T20:16:58.095Z,2.57
2023-02-13T20:19:30.974Z,2.57
2023-02-13T20:22:03.770Z,2.80
2023-02-13T20:24:36.653Z,3.03
2023-02-13T20:27:10.648Z,2.93
2023-02-13T20:29:44.274Z,2.60
2023-02-13T20:32:17.040Z,2.40
2023-02-13T20:34:59.629Z,3.03
2023-02-13T20:37:33.402Z,3.23
2023-02-13T20:40:06.571Z,3.07
2023-02-13T20:42:39.427Z,2.83
2023-02-13T20:45:12.150Z,3.23
2023-02-13T20:47:46.301Z,2.83
2023-02-13T20:50:19.118Z,3.03
2023-02-13T20:52:51.807Z,2.90
2023-02-13T20:55:24.500Z,3.57
2023-02-13T20:57:57.180Z,3.57
2023-02-13T21:00:29.815Z,2.77
2023-02-13T21:03:02.544Z,2.97
2023-02-13T21:05:35.378Z,3.10
2023-02-13T21:08:08.137Z,4.32
2023-02-13T21:10:40.797Z,3.37
2023-02-13T21:13:16.336Z,2.77
2023-02-13T21:15:50.520Z,3.10
2023-02-13T21:18:23.224Z,2.53
2023-02-13T21:20:57.409Z,3.20
2023-02-13T21:23:30.704Z,2.97
2023-02-13T21:26:09.263Z,3.42
2023-02-13T21:28:43.811Z,3.50
2023-02-13T21:31:19.990Z,3.00
2023-02-13T21:33:53.035Z,3.63
2023-02-13T21:36:26.878Z,3.13
2023-02-13T21:39:00.159Z,3.37
2023-02-13T21:41:33.073Z,3.00
2023-02-13T21:44:05.812Z,3.10
2023-02-13T21:46:38.516Z,3.40
2023-02-13T21:49:16.765Z,2.57
2023-02-13T21:51:49.541Z,2.53
2023-02-13T21:54:22.425Z,2.17
2023-02-13T21:56:55.379Z,2.90
2023-02-13T21:59:28.268Z,2.80
2023-02-13T22:02:02.608Z,2.40
2023-02-13T22:04:35.410Z,2.90
2023-02-13T22:07:08.167Z,2.87
2023-02-13T22:09:40.849Z,2.70
2023-02-13T22:12:13.569Z,2.97
2023-02-13T22:14:46.290Z,2.57
2023-02-13T22:17:20.860Z,3.43
2023-02-13T22:19:54.558Z,3.60
2023-02-13T22:22:27.251Z,3.87
2023-02-13T22:25:00.046Z,3.67
2023-02-13T22:27:32.740Z,3.90
2023-02-13T22:30:06.746Z,4.40
2023-02-13T22:32:39.958Z,3.77
2023-02-13T22:35:12.650Z,3.80
2023-02-13T22:37:45.323Z,3.20
2023-02-13T22:40:19.278Z,3.37
2023-02-13T22:42:52.626Z,2.93
2023-02-13T22:45:25.522Z,3.17
2023-02-13T22:47:58.175Z,3.47
2023-02-13T22:50:31.486Z,3.07
2023-02-13T22:53:04.744Z,3.10
2023-02-13T22:55:37.511Z,3.20
2023-02-13T22:58:10.255Z,4.03
2023-02-13T23:00:42.908Z,4.80
2023-02-13T23:03:15.627Z,4.10
2023-02-13T23:05:48.464Z,4.37
2023-02-13T23:08:21.136Z,4.17
2023-02-13T23:11:12.333Z,5.00
2023-02-13T23:13:46.285Z,4.80
2023-02-13T23:16:20.755Z,4.23
2023-02-13T23:18:55.367Z,4.20
2023-02-13T23:21:28.119Z,3.93
2023-02-13T23:24:00.959Z,4.33
2023-02-13T23:26:33.711Z,3.30
2023-02-13T23:29:06.379Z,4.23
2023-02-13T23:31:39.656Z,4.57
2023-02-13T23:34:12.285Z,4.27
2023-02-13T23:36:44.962Z,5.10
2023-02-13T23:39:17.671Z,5.00
2023-02-13T23:41:50.376Z,5.50
2023-02-13T23:44:23.164Z,5.93
2023-02-13T23:46:55.830Z,4.80
2023-02-13T23:49:28.547Z,4.53
2023-02-13T23:52:01.287Z,4.47
2023-02-13T23:54:34.087Z,3.87
2023-02-13T23:57:06.926Z,4.20
2023-02-13T23:59:39.732Z,4.57
